Time;durP1;ratioP1;P1;durP2;ratioP2;P2;SDS_P1;SDS_P2;PMS_P1;PMS_P2;Temp;Humidity;BMP_temperature;BMP_pressure;BME280_temperature;BME280_humidity;BME280_pressure;Samples;Min_cycle;Max_cycle;Signal;HPM_P1;HPM_P2
2023/06/30 03:01:21;;;;;;;11.95;9.73;;;19.50;99.90;;;;;;5422735;23;20247;-74
2023/06/30 03:03:47;;;;;;;10.13;9.43;;;19.40;99.90;;;;;;4880007;29;20211;-75
2023/06/30 03:06:13;;;;;;;10.45;9.45;;;19.40;99.90;;;;;;4897807;29;20208;-75
2023/06/30 03:08:39;;;;;;;11.82;10.88;;;19.40;99.90;;;;;;4896524;29;20195;-74
2023/06/30 03:11:04;;;;;;;11.13;10.43;;;19.40;99.90;;;;;;4893757;29;20208;-75
2023/06/30 03:15:59;;;;;;;13.25;12.07;;;19.30;99.90;;;;;;4897236;23;20261;-78
2023/06/30 03:18:25;;;;;;;12.43;11.43;;;19.30;99.90;;;;;;4871469;29;20184;-79
2023/06/30 03:20:51;;;;;;;13.82;12.60;;;19.20;99.90;;;;;;4880233;29;20653;-79
2023/06/30 03:23:19;;;;;;;13.68;12.63;;;19.20;99.90;;;;;;4862822;29;20204;-76
2023/06/30 03:25:45;;;;;;;13.32;12.55;;;19.20;99.90;;;;;;4862378;29;20377;-77
2023/06/30 03:28:10;;;;;;;13.23;12.43;;;19.20;99.90;;;;;;4854731;29;20275;-79
2023/06/30 03:30:36;;;;;;;15.00;13.60;;;19.20;99.90;;;;;;4872956;29;20794;-76
2023/06/30 03:33:02;;;;;;;12.63;11.63;;;19.20;99.90;;;;;;4870160;29;20809;-77
2023/06/30 03:35:29;;;;;;;12.00;11.10;;;19.20;99.90;;;;;;4878705;29;20212;-77
2023/06/30 03:37:54;;;;;;;17.20;15.77;;;19.20;99.90;;;;;;4855373;29;20193;-77
2023/06/30 03:40:20;;;;;;;19.98;18.77;;;19.10;99.90;;;;;;4878194;29;20652;-76
2023/06/30 03:42:46;;;;;;;23.95;22.35;;;19.10;99.90;;;;;;4862011;29;20189;-76
2023/06/30 03:45:12;;;;;;;24.55;23.08;;;19.00;99.90;;;;;;4861776;29;20227;-77
2023/06/30 03:47:37;;;;;;;35.08;32.88;;;19.00;99.90;;;;;;4856860;29;20245;-77
2023/06/30 03:50:03;;;;;;;60.50;57.22;;;19.00;99.90;;;;;;4853566;29;20220;-77
2023/06/30 03:52:29;;;;;;;60.05;56.75;;;19.00;99.90;;;;;;4878668;29;20618;-76
2023/06/30 03:54:55;;;;;;;43.15;40.72;;;19.00;99.90;;;;;;4861899;29;20303;-77
2023/06/30 03:57:21;;;;;;;43.33;40.72;;;19.00;99.90;;;;;;4883885;29;20225;-77
2023/06/30 03:59:46;;;;;;;42.17;39.70;;;19.00;99.90;;;;;;4860382;29;20568;-78
2023/06/30 04:02:12;;;;;;;43.22;40.33;;;19.00;99.90;;;;;;4867468;29;20249;-77
2023/06/30 04:04:38;;;;;;;47.83;45.00;;;18.90;99.90;;;;;;4882485;29;20288;-76
2023/06/30 04:07:04;;;;;;;52.33;49.38;;;19.00;99.90;;;;;;4879796;29;20192;-78
2023/06/30 04:09:30;;;;;;;58.78;55.47;;;19.00;99.90;;;;;;4872290;29;20705;-77
2023/06/30 04:11:56;;;;;;;53.53;50.65;;;19.00;99.90;;;;;;4879552;29;20204;-76
2023/06/30 04:14:22;;;;;;;45.00;42.72;;;19.00;99.90;;;;;;4878127;29;20232;-77
2023/06/30 04:16:47;;;;;;;49.20;46.25;;;19.00;99.90;;;;;;4862308;29;20200;-77
2023/06/30 04:19:13;;;;;;;45.72;42.90;;;19.10;99.90;;;;;;4866156;29;20209;-71
2023/06/30 04:21:39;;;;;;;55.75;52.58;;;19.00;99.90;;;;;;4870163;29;20613;-69
2023/06/30 04:24:05;;;;;;;53.80;50.75;;;19.10;99.90;;;;;;4877885;29;20688;-70
2023/06/30 04:26:31;;;;;;;55.15;52.08;;;19.10;99.90;;;;;;4865873;29;20583;-70
2023/06/30 04:28:57;;;;;;;51.13;47.75;;;19.10;99.90;;;;;;4868627;29;20248;-70
2023/06/30 04:31:23;;;;;;;59.03;55.58;;;19.10;99.90;;;;;;4877321;29;20689;-69
2023/06/30 04:33:49;;;;;;;95.60;90.15;;;19.20;99.90;;;;;;4877333;29;20199;-70
2023/06/30 04:36:20;;;;;;;43.03;40.25;;;19.30;99.90;;;;;;4874860;29;20192;-69
2023/06/30 04:38:48;;;;;;;16.17;14.25;;;19.40;99.90;;;;;;4858419;29;20221;-69
2023/06/30 04:41:15;;;;;;;17.77;16.23;;;19.50;99.90;;;;;;4867237;29;20192;-69
2023/06/30 04:43:42;;;;;;;12.63;11.73;;;19.60;99.90;;;;;;4876984;29;20203;-70
2023/06/30 04:46:08;;;;;;;10.57;9.50;;;19.80;99.90;;;;;;4877163;29;20276;-69
2023/06/30 04:48:37;;;;;;;44.80;41.97;;;19.90;99.90;;;;;;4871344;29;20726;-70
2023/06/30 04:51:02;;;;;;;45.67;43.25;;;20.10;99.90;;;;;;4858549;29;20197;-69
2023/06/30 04:53:28;;;;;;;21.85;20.35;;;20.20;99.90;;;;;;4877526;29;20196;-69
2023/06/30 04:55:54;;;;;;;12.57;11.23;;;20.30;99.90;;;;;;4877272;29;20256;-70
2023/06/30 04:58:20;;;;;;;13.43;12.27;;;20.50;99.90;;;;;;4871584;29;20188;-70
2023/06/30 05:00:46;;;;;;;20.38;16.83;;;20.60;99.90;;;;;;4869637;29;20196;-68
2023/06/30 05:03:15;;;;;;;15.35;13.18;;;20.60;99.90;;;;;;4877204;29;20287;-70
2023/06/30 05:05:41;;;;;;;12.55;10.90;;;20.70;99.90;;;;;;4876965;29;20311;-69
2023/06/30 05:08:07;;;;;;;12.10;9.82;;;20.70;99.90;;;;;;4872616;29;20241;-71
2023/06/30 05:10:33;;;;;;;11.52;10.55;;;20.70;99.90;;;;;;4872428;29;20678;-71
2023/06/30 05:12:59;;;;;;;13.63;12.25;;;20.80;99.90;;;;;;4860149;29;20694;-70
2023/06/30 05:15:24;;;;;;;12.18;10.85;;;20.70;99.90;;;;;;4876522;29;20267;-70
2023/06/30 05:17:50;;;;;;;11.93;10.80;;;20.70;99.90;;;;;;4872849;29;20217;-71
2023/06/30 05:20:16;;;;;;;14.20;12.75;;;20.70;99.90;;;;;;4876238;29;20230;-71
2023/06/30 05:22:42;;;;;;;13.43;12.43;;;20.70;99.90;;;;;;4860592;29;20199;-71
2023/06/30 05:25:08;;;;;;;13.55;12.55;;;20.70;99.90;;;;;;4876743;29;20293;-70
2023/06/30 05:27:33;;;;;;;14.63;13.35;;;20.70;99.90;;;;;;4875339;29;20219;-69
2023/06/30 05:29:59;;;;;;;13.63;12.55;;;20.60;99.90;;;;;;4874112;29;20212;-69
2023/06/30 05:32:25;;;;;;;10.63;9.80;;;20.50;99.90;;;;;;4877513;29;20203;-70
2023/06/30 05:34:51;;;;;;;10.35;9.70;;;20.50;99.90;;;;;;4877351;29;20580;-70
2023/06/30 05:37:17;;;;;;;12.05;10.95;;;20.50;99.90;;;;;;4877026;29;20192;-69
2023/06/30 05:39:43;;;;;;;12.20;10.95;;;20.50;99.90;;;;;;4862644;29;20185;-69
2023/06/30 05:42:08;;;;;;;11.80;9.13;;;20.40;99.90;;;;;;4875269;29;20192;-68
2023/06/30 05:44:34;;;;;;;10.18;9.27;;;20.30;99.90;;;;;;4876967;29;20259;-68
2023/06/30 05:47:01;;;;;;;10.40;9.45;;;20.20;99.90;;;;;;4876638;29;20211;-67
2023/06/30 05:49:27;;;;;;;10.38;9.57;;;20.10;99.90;;;;;;4866875;29;20180;-67
2023/06/30 05:51:53;;;;;;;12.48;11.30;;;20.10;99.90;;;;;;4868486;29;20195;-69
2023/06/30 05:54:19;;;;;;;12.98;11.90;;;20.10;99.90;;;;;;4877485;29;20720;-69
2023/06/30 05:56:45;;;;;;;14.40;12.80;;;20.10;99.90;;;;;;4866464;29;20197;-69
2023/06/30 05:59:11;;;;;;;15.50;14.30;;;20.20;99.90;;;;;;4874905;29;20192;-69
2023/06/30 06:01:40;;;;;;;25.73;24.17;;;20.30;99.90;;;;;;4871046;29;20188;-69
2023/06/30 06:04:10;;;;;;;41.38;38.92;;;20.40;99.90;;;;;;4876317;29;20201;-69
2023/06/30 06:06:39;;;;;;;37.05;34.85;;;20.40;99.90;;;;;;4856437;29;20206;-69
2023/06/30 06:09:05;;;;;;;40.15;37.60;;;20.40;99.90;;;;;;4859459;29;20263;-69
2023/06/30 06:11:30;;;;;;;37.33;34.20;;;20.50;99.90;;;;;;4868847;29;20185;-69
2023/06/30 06:13:56;;;;;;;79.57;75.35;;;20.50;99.90;;;;;;4875110;29;20283;-69
2023/06/30 06:16:23;;;;;;;52.22;49.03;;;20.50;99.90;;;;;;4876702;29;20681;-68
2023/06/30 06:18:49;;;;;;;84.55;79.38;;;20.20;99.90;;;;;;4875258;29;20207;-68
2023/06/30 06:21:16;;;;;;;172.68;162.38;;;19.70;99.90;;;;;;4869841;29;20196;-67
2023/06/30 06:23:43;;;;;;;123.53;115.30;;;19.30;99.90;;;;;;4870324;29;20239;-66
2023/06/30 06:26:14;;;;;;;164.65;155.02;;;19.00;99.90;;;;;;4871309;29;20657;-67
2023/06/30 06:28:39;;;;;;;196.13;184.95;;;18.80;99.90;;;;;;4874537;29;20189;-67
2023/06/30 06:31:05;;;;;;;113.43;106.70;;;18.50;99.90;;;;;;4873841;29;20186;-66
2023/06/30 06:33:31;;;;;;;119.28;111.32;;;18.30;99.90;;;;;;4873899;29;20188;-67
2023/06/30 06:35:58;;;;;;;140.85;131.77;;;;;;;;;;4878159;29;20259;-67
2023/06/30 06:38:24;;;;;;;112.97;105.93;;;18.20;99.90;;;;;;4878714;29;20558;-67
2023/06/30 06:40:50;;;;;;;96.90;90.60;;;18.20;99.90;;;;;;4874753;29;20181;-66
2023/06/30 06:43:16;;;;;;;92.82;87.20;;;18.20;99.90;;;;;;4877787;29;20202;-66
2023/06/30 06:45:42;;;;;;;72.57;67.60;;;18.30;99.90;;;;;;4879368;29;20299;-67
2023/06/30 06:48:25;;;;;;;99.82;93.55;;;18.20;99.90;;;;;;4867681;29;20287;-66
2023/06/30 06:50:51;;;;;;;145.18;136.75;;;18.30;99.90;;;;;;4876495;29;20195;-67
2023/06/30 06:53:20;;;;;;;204.13;192.20;;;18.30;99.90;;;;;;4878926;29;20633;-66
2023/06/30 06:55:50;;;;;;;261.63;244.90;;;18.30;99.90;;;;;;4879255;29;20216;-66
2023/06/30 06:58:17;;;;;;;281.27;262.95;;;18.20;99.90;;;;;;4879033;29;20232;-66
2023/06/30 07:00:44;;;;;;;202.63;190.27;;;18.20;99.90;;;;;;4879751;29;20200;-65
2023/06/30 07:03:10;;;;;;;175.95;165.35;;;18.10;99.90;;;;;;4869202;29;20205;-66
2023/06/30 07:05:37;;;;;;;174.43;164.05;;;18.10;99.90;;;;;;4876040;29;20232;-64
2023/06/30 07:08:04;;;;;;;138.73;130.50;;;18.10;99.90;;;;;;4878973;29;20192;-65
2023/06/30 07:10:30;;;;;;;133.30;124.85;;;18.10;99.90;;;;;;4879329;29;20188;-65
2023/06/30 07:12:56;;;;;;;144.60;135.77;;;18.20;99.90;;;;;;4866737;29;20193;-65
2023/06/30 07:15:22;;;;;;;127.60;119.37;;;18.20;99.90;;;;;;4856393;29;20228;-66
2023/06/30 07:17:48;;;;;;;131.27;123.27;;;18.30;99.90;;;;;;4873779;29;20697;-66
2023/06/30 07:20:14;;;;;;;131.83;123.57;;;18.40;99.90;;;;;;4878871;29;20196;-66
2023/06/30 07:22:40;;;;;;;135.40;126.80;;;18.50;99.90;;;;;;4869729;29;20268;-66
2023/06/30 07:25:07;;;;;;;161.13;151.00;;;18.50;99.90;;;;;;4878584;29;20227;-66
2023/06/30 07:27:36;;;;;;;133.82;125.18;;;18.50;99.90;;;;;;4871915;29;20605;-66
2023/06/30 07:30:02;;;;;;;147.75;138.52;;;18.50;99.90;;;;;;4878712;29;20609;-66
2023/06/30 07:32:27;;;;;;;145.45;136.50;;;18.50;99.90;;;;;;4872431;29;20285;-66
2023/06/30 07:34:53;;;;;;;51.95;48.28;;;18.60;99.90;;;;;;4878561;29;20280;-66
2023/06/30 07:37:19;;;;;;;223.73;209.80;;;18.50;99.90;;;;;;4874629;29;20263;-67
2023/06/30 07:39:45;;;;;;;214.23;200.93;;;18.40;99.90;;;;;;4878546;29;20193;-66
2023/06/30 07:42:11;;;;;;;133.90;125.22;;;18.40;99.90;;;;;;4872871;29;20642;-66
2023/06/30 07:44:36;;;;;;;255.43;239.27;;;18.40;99.90;;;;;;4877099;29;20312;-66
2023/06/30 07:47:02;;;;;;;369.17;346.75;;;18.50;99.90;;;;;;4875306;29;20209;-66
2023/06/30 07:49:28;;;;;;;203.43;190.98;;;18.60;99.90;;;;;;4861623;29;20192;-66
2023/06/30 07:51:54;;;;;;;199.95;186.93;;;18.90;99.90;;;;;;4874804;29;20271;-66
2023/06/30 07:54:20;;;;;;;317.30;298.75;;;19.10;99.90;;;;;;4860209;29;20218;-67
2023/06/30 07:56:47;;;;;;;147.35;139.00;;;19.20;99.90;;;;;;4877573;29;20284;-67
2023/06/30 07:59:13;;;;;;;33.50;30.85;;;19.30;99.90;;;;;;4876211;29;20256;-67
2023/06/30 08:01:39;;;;;;;37.45;34.38;;;19.20;99.90;;;;;;4871507;29;20821;-67
2023/06/30 08:04:04;;;;;;;226.85;213.32;;;19.30;99.90;;;;;;4875130;29;20209;-68
2023/06/30 08:06:30;;;;;;;62.50;58.25;;;19.40;99.90;;;;;;4876884;29;20224;-69
2023/06/30 08:08:56;;;;;;;27.08;24.83;;;19.40;99.90;;;;;;4880726;29;20192;-67
2023/06/30 08:11:21;;;;;;;23.63;20.85;;;19.30;99.90;;;;;;4883178;29;20315;-67
2023/06/30 08:13:47;;;;;;;25.48;23.00;;;19.30;99.90;;;;;;4876103;29;20189;-67
2023/06/30 08:16:13;;;;;;;37.22;34.53;;;19.50;99.90;;;;;;4868594;29;20271;-68
2023/06/30 08:18:39;;;;;;;215.05;200.70;;;19.70;99.90;;;;;;4877313;29;20802;-68
2023/06/30 08:21:04;;;;;;;120.05;112.18;;;19.70;99.90;;;;;;4876511;29;20199;-68
2023/06/30 08:23:30;;;;;;;166.40;155.77;;;19.70;99.90;;;;;;4871282;29;20196;-67
2023/06/30 08:25:56;;;;;;;79.00;73.57;;;19.60;99.90;;;;;;4868654;29;20326;-67
2023/06/30 08:28:22;;;;;;;37.00;34.28;;;19.60;99.90;;;;;;4864562;29;20680;-68
2023/06/30 08:30:48;;;;;;;36.47;33.47;;;19.50;99.90;;;;;;4869732;29;20571;-67
2023/06/30 08:33:13;;;;;;;20.25;18.27;;;19.50;99.90;;;;;;4870757;29;20277;-67
2023/06/30 08:35:39;;;;;;;18.00;16.05;;;19.40;99.90;;;;;;4874062;29;20282;-67
2023/06/30 08:38:05;;;;;;;15.45;13.95;;;19.40;99.90;;;;;;4876323;29;20282;-67
2023/06/30 08:40:31;;;;;;;14.82;13.38;;;19.40;99.90;;;;;;4860817;29;20204;-67
2023/06/30 08:43:05;;;;;;;16.05;14.05;;;19.40;99.90;;;;;;4869301;29;20256;-67
2023/06/30 08:45:32;;;;;;;17.65;15.75;;;19.40;99.90;;;;;;4856307;29;20216;-67
2023/06/30 08:48:03;;;;;;;17.67;15.85;;;19.50;99.90;;;;;;4861426;29;20199;-66
2023/06/30 08:50:29;;;;;;;18.10;16.50;;;19.50;99.90;;;;;;4864735;29;20192;-65
2023/06/30 08:52:55;;;;;;;20.15;18.15;;;19.50;99.90;;;;;;4847978;29;20191;-65
2023/06/30 08:55:21;;;;;;;18.48;16.70;;;19.60;99.90;;;;;;4859482;29;20220;-66
2023/06/30 08:57:48;;;;;;;18.92;16.88;;;19.70;99.90;;;;;;4870144;29;20680;-67
2023/06/30 09:00:14;;;;;;;19.63;17.73;;;19.70;99.90;;;;;;4877105;29;20760;-66
2023/06/30 09:02:42;;;;;;;22.05;19.98;;;19.70;99.90;;;;;;4870247;29;20203;-67
2023/06/30 09:05:09;;;;;;;40.13;36.85;;;19.60;99.90;;;;;;4874116;29;20223;-66
2023/06/30 09:07:41;;;;;;;227.52;213.05;;;19.60;99.90;;;;;;4875709;29;20568;-67
2023/06/30 09:10:09;;;;;;;206.90;192.80;;;19.70;99.90;;;;;;4877010;29;20669;-66
2023/06/30 09:12:40;;;;;;;208.65;194.93;;;19.70;99.90;;;;;;4866541;29;20189;-66
2023/06/30 09:15:09;;;;;;;376.92;352.80;;;19.80;99.90;;;;;;4883838;23;20319;-69
2023/06/30 09:17:34;;;;;;;233.77;219.82;;;19.90;99.90;;;;;;4860576;29;20192;-67
2023/06/30 09:20:00;;;;;;;90.43;84.75;;;20.00;99.90;;;;;;4877406;29;20687;-69
2023/06/30 09:22:26;;;;;;;96.50;90.47;;;20.00;99.90;;;;;;4870758;29;20186;-67
2023/06/30 09:24:53;;;;;;;29.65;27.15;;;20.00;99.90;;;;;;4877320;29;20802;-66
2023/06/30 09:27:18;;;;;;;32.85;30.05;;;20.10;99.90;;;;;;4877042;29;20200;-67
2023/06/30 09:29:53;;;;;;;85.05;79.68;;;20.20;99.90;;;;;;4877150;29;20251;-67
2023/06/30 09:32:27;;;;;;;105.45;98.93;;;20.30;99.90;;;;;;4870792;29;20200;-67
2023/06/30 09:34:54;;;;;;;72.57;68.13;;;20.30;99.90;;;;;;4877143;29;20224;-69
2023/06/30 09:37:20;;;;;;;66.70;62.25;;;20.40;99.90;;;;;;4860314;29;20184;-69
2023/06/30 09:39:51;;;;;;;99.60;93.38;;;20.60;99.90;;;;;;4877235;29;20207;-68
2023/06/30 09:42:18;;;;;;;33.65;30.63;;;20.60;99.90;;;;;;4866377;29;20284;-68
2023/06/30 09:44:44;;;;;;;46.63;42.42;;;20.70;99.90;;;;;;4877629;29;20593;-69
2023/06/30 09:47:12;;;;;;;198.43;186.27;;;20.70;99.90;;;;;;4876824;29;20207;-68
2023/06/30 09:49:39;;;;;;;355.90;335.10;;;20.70;99.90;;;;;;4876265;29;20188;-68
2023/06/30 09:52:06;;;;;;;265.45;249.70;;;20.70;99.90;;;;;;4875230;29;20638;-68
2023/06/30 09:54:33;;;;;;;261.48;246.55;;;20.70;99.90;;;;;;4868157;29;20187;-68
2023/06/30 09:57:00;;;;;;;169.68;158.90;;;20.60;99.90;;;;;;4873665;29;20199;-68
2023/06/30 09:59:27;;;;;;;114.85;107.50;;;20.60;99.90;;;;;;4877342;29;20188;-69
2023/06/30 10:01:54;;;;;;;37.85;34.33;;;20.50;99.90;;;;;;4876092;29;20203;-69
2023/06/30 10:04:20;;;;;;;87.03;81.28;;;20.50;99.90;;;;;;4880676;29;20616;-69
2023/06/30 10:06:47;;;;;;;68.00;63.42;;;20.40;99.90;;;;;;4880402;29;20281;-68
2023/06/30 10:09:15;;;;;;;32.75;29.67;;;20.40;99.90;;;;;;4880203;29;20184;-69
2023/06/30 10:11:44;;;;;;;28.88;25.95;;;20.40;99.90;;;;;;4877299;29;20192;-66
2023/06/30 10:14:13;;;;;;;29.63;26.95;;;20.40;99.90;;;;;;4880658;29;20192;-67
2023/06/30 10:16:40;;;;;;;32.83;29.75;;;20.40;99.90;;;;;;4880719;29;20228;-67
2023/06/30 10:19:06;;;;;;;62.47;58.15;;;20.40;99.90;;;;;;4863250;29;20270;-67
2023/06/30 10:21:33;;;;;;;82.45;77.05;;;20.30;99.90;;;;;;4876387;29;20239;-67
2023/06/30 10:24:02;;;;;;;75.00;70.18;;;20.20;99.90;;;;;;4876932;29;20203;-67
2023/06/30 10:26:31;;;;;;;39.58;35.70;;;20.20;99.90;;;;;;4888302;29;20216;-67
2023/06/30 10:28:57;;;;;;;78.95;73.72;;;20.10;99.90;;;;;;4880923;29;20679;-67
2023/06/30 10:31:23;;;;;;;69.30;64.40;;;20.00;99.90;;;;;;4877663;29;20548;-68
2023/06/30 10:33:49;;;;;;;58.85;54.33;;;20.00;99.90;;;;;;4862656;29;20192;-68
2023/06/30 10:36:17;;;;;;;40.55;37.05;;;20.00;99.90;;;;;;4863392;29;20715;-68
2023/06/30 10:38:44;;;;;;;77.85;72.78;;;20.10;99.90;;;;;;4879810;29;20192;-67
2023/06/30 10:41:20;;;;;;;75.43;70.40;;;20.10;99.90;;;;;;4876955;29;20199;-68
2023/06/30 10:44:07;;;;;;;86.88;81.10;;;20.20;99.90;;;;;;4878808;29;20216;-68
2023/06/30 10:46:49;;;;;;;71.55;66.60;;;20.20;99.90;;;;;;4876375;29;20228;-67
2023/06/30 10:49:37;;;;;;;34.50;30.98;;;20.20;99.90;;;;;;4877540;29;20570;-67
2023/06/30 10:52:07;;;;;;;54.70;50.45;;;20.20;99.90;;;;;;4868439;29;20272;-67
2023/06/30 10:54:48;;;;;;;44.67;40.08;;;20.10;99.90;;;;;;4877667;29;20648;-67
2023/06/30 10:57:17;;;;;;;52.70;48.08;;;20.10;99.90;;;;;;4878282;29;20192;-67
2023/06/30 10:59:45;;;;;;;69.28;64.30;;;20.20;99.90;;;;;;4879758;29;20340;-67
2023/06/30 11:02:17;;;;;;;57.50;53.00;;;20.10;99.90;;;;;;4877990;29;20203;-67
2023/06/30 11:04:47;;;;;;;88.97;82.85;;;20.10;99.90;;;;;;4862809;29;20708;-67
2023/06/30 11:07:24;;;;;;;70.25;64.90;;;20.20;99.90;;;;;;4879203;29;20230;-66
2023/06/30 11:09:50;;;;;;;33.53;30.05;;;20.10;99.90;;;;;;4858323;29;20188;-66
2023/06/30 11:12:16;;;;;;;40.40;36.25;;;20.10;99.90;;;;;;4877271;29;20193;-66
2023/06/30 11:14:59;;;;;;;66.30;61.15;;;20.00;99.90;;;;;;4876298;29;20227;-66
2023/06/30 11:17:27;;;;;;;60.17;55.08;;;19.90;99.90;;;;;;4864019;29;20685;-67
2023/06/30 11:20:12;;;;;;;31.38;27.40;;;19.90;99.90;;;;;;4878535;29;20196;-66
2023/06/30 11:22:41;;;;;;;50.67;46.42;;;20.00;99.90;;;;;;4862149;29;20200;-66
2023/06/30 11:25:11;;;;;;;53.47;48.95;;;20.00;99.90;;;;;;4878949;29;20219;-67
2023/06/30 11:27:38;;;;;;;236.98;221.25;;;20.00;99.90;;;;;;4862169;29;20193;-66
2023/06/30 11:30:07;;;;;;;270.10;252.90;;;20.20;99.90;;;;;;4876530;29;20275;-66
2023/06/30 11:32:36;;;;;;;245.98;230.13;;;20.30;99.90;;;;;;4875940;29;20188;-66
2023/06/30 11:35:07;;;;;;;42.55;38.40;;;20.50;99.90;;;;;;4873849;29;20768;-67
2023/06/30 11:37:36;;;;;;;105.47;98.80;;;20.70;99.90;;;;;;4877816;29;20200;-66
2023/06/30 11:40:03;;;;;;;33.35;29.95;;;20.90;99.90;;;;;;4876012;29;20192;-67
2023/06/30 11:42:29;;;;;;;92.85;86.75;;;21.20;99.90;;;;;;4879147;29;20188;-66
2023/06/30 11:44:55;;;;;;;50.38;45.67;;;21.30;99.90;;;;;;4878844;29;20685;-66
2023/06/30 11:47:21;;;;;;;40.92;37.17;;;21.50;99.90;;;;;;4877901;29;20275;-67
2023/06/30 11:49:47;;;;;;;27.27;23.75;;;21.70;99.90;;;;;;4854509;29;20223;-66
2023/06/30 11:52:14;;;;;;;91.78;85.82;;;21.90;99.90;;;;;;4878883;29;20335;-67
2023/06/30 11:54:40;;;;;;;291.70;274.40;;;22.10;99.90;;;;;;4875653;29;20311;-66
2023/06/30 11:57:07;;;;;;;148.52;139.10;;;22.30;99.90;;;;;;4878918;29;20229;-66
2023/06/30 11:59:33;;;;;;;44.30;40.45;;;22.30;99.90;;;;;;4888277;29;20216;-66
2023/06/30 12:02:02;;;;;;;57.50;52.45;;;22.10;99.90;;;;;;4871824;29;20202;-67
2023/06/30 12:04:33;;;;;;;98.70;92.10;;;22.00;99.90;;;;;;4878967;29;20195;-67
2023/06/30 12:07:03;;;;;;;223.60;210.80;;;21.90;99.90;;;;;;4878549;29;20220;-67
2023/06/30 12:09:29;;;;;;;360.42;339.27;;;21.80;99.90;;;;;;4873696;29;20659;-67
2023/06/30 12:12:00;;;;;;;358.13;336.98;;;21.60;99.90;;;;;;4860276;29;20302;-66
2023/06/30 12:14:26;;;;;;;263.88;247.48;;;21.70;99.90;;;;;;4862042;29;20192;-66
2023/06/30 12:16:53;;;;;;;234.57;220.57;;;21.70;99.90;;;;;;4874875;29;20542;-66
2023/06/30 12:19:27;;;;;;;141.57;132.52;;;21.70;99.90;;;;;;4873497;29;20673;-66
2023/06/30 12:22:06;;;;;;;123.25;115.25;;;21.90;99.90;;;;;;4877787;29;20200;-67
2023/06/30 12:24:33;;;;;;;238.77;224.30;;;22.10;99.90;;;;;;4875607;29;20228;-67
2023/06/30 12:27:06;;;;;;;187.90;176.57;;;22.40;99.90;;;;;;4874646;29;20288;-67
2023/06/30 12:29:33;;;;;;;40.67;36.58;;;22.70;99.90;;;;;;4875716;29;20192;-67
2023/06/30 12:32:00;;;;;;;54.45;49.88;;;23.30;99.90;;;;;;4878146;29;20192;-67
2023/06/30 12:34:36;;;;;;;60.38;55.47;;;23.70;99.90;;;;;;4877825;29;20193;-67
2023/06/30 12:37:02;;;;;;;163.05;152.88;;;24.10;99.90;;;;;;4877589;29;20279;-67
2023/06/30 12:39:29;;;;;;;171.18;160.40;;;24.30;99.90;;;;;;4858444;29;20192;-67
2023/06/30 12:41:55;;;;;;;47.17;42.92;;;24.30;99.90;;;;;;4877044;29;20248;-67
2023/06/30 12:44:21;;;;;;;170.63;159.73;;;24.20;99.90;;;;;;4877451;29;20199;-67
2023/06/30 12:47:05;;;;;;;83.85;77.82;;;24.20;99.90;;;;;;4872877;29;20241;-68
2023/06/30 12:49:39;;;;;;;35.58;32.05;;;24.20;99.90;;;;;;4875900;29;20188;-67
2023/06/30 12:52:05;;;;;;;29.08;24.50;;;24.10;99.90;;;;;;4877845;29;20195;-68
2023/06/30 12:54:31;;;;;;;29.60;25.25;;;24.10;99.90;;;;;;4877650;29;20683;-67
2023/06/30 12:56:57;;;;;;;55.15;50.38;;;24.30;99.90;;;;;;4877530;29;20199;-68
2023/06/30 12:59:23;;;;;;;57.83;52.55;;;24.50;99.90;;;;;;4875826;29;20188;-68
2023/06/30 13:01:49;;;;;;;48.17;43.58;;;24.50;99.90;;;;;;4877611;29;20200;-67
2023/06/30 13:04:15;;;;;;;47.38;43.13;;;24.50;99.90;;;;;;4877552;29;20223;-67
2023/06/30 13:06:41;;;;;;;61.38;56.40;;;24.70;99.90;;;;;;4876149;29;20256;-66
2023/06/30 13:09:07;;;;;;;67.80;62.47;;;24.80;99.90;;;;;;4868019;29;20275;-66
2023/06/30 13:11:33;;;;;;;41.15;37.17;;;25.20;99.90;;;;;;4877364;29;20235;-67
2023/06/30 13:13:59;;;;;;;30.77;25.20;;;25.60;99.90;;;;;;4877808;29;20184;-66
2023/06/30 13:16:25;;;;;;;27.75;23.63;;;25.80;99.90;;;;;;4872503;29;20227;-67
2023/06/30 13:18:51;;;;;;;30.13;23.13;;;25.50;99.90;;;;;;4859382;29;20196;-67
2023/06/30 13:21:17;;;;;;;30.90;26.23;;;25.40;99.90;;;;;;4877399;29;20196;-67
2023/06/30 13:23:43;;;;;;;28.73;25.63;;;25.60;99.90;;;;;;4877559;29;20196;-67
2023/06/30 13:26:08;;;;;;;29.48;26.33;;;25.80;99.90;;;;;;4877328;29;20220;-67
2023/06/30 13:28:35;;;;;;;63.33;53.53;;;25.70;99.90;;;;;;5331131;23;20240;-66
2023/06/30 13:31:05;;;;;;;57.97;51.88;;;25.60;99.90;;;;;;4870634;29;20632;-67
2023/06/30 13:33:31;;;;;;;51.45;46.30;;;25.60;99.90;;;;;;4867991;29;20265;-67
2023/06/30 13:35:57;;;;;;;38.13;34.15;;;25.70;99.90;;;;;;4869422;29;20241;-67
2023/06/30 13:38:22;;;;;;;36.78;29.25;;;25.70;99.90;;;;;;4876423;29;20255;-66
2023/06/30 13:40:48;;;;;;;33.08;29.05;;;26.20;99.90;;;;;;4874758;29;20184;-66
2023/06/30 13:43:14;;;;;;;31.63;24.75;;;26.80;99.90;;;;;;4893053;23;20268;-66
2023/06/30 13:45:40;;;;;;;28.52;23.55;;;26.60;99.90;;;;;;4876345;29;20774;-65
2023/06/30 13:48:06;;;;;;;30.42;23.77;;;26.50;99.90;;;;;;4875409;29;20230;-67
2023/06/30 13:50:33;;;;;;;32.28;27.58;;;27.10;99.90;;;;;;4872045;29;20241;-68
2023/06/30 13:52:59;;;;;;;45.38;41.28;;;27.30;99.90;;;;;;4869344;29;20208;-67
2023/06/30 13:55:24;;;;;;;48.42;43.92;;;27.80;99.90;;;;;;4875828;29;20288;-68
2023/06/30 13:57:51;;;;;;;66.53;61.22;;;27.20;99.90;;;;;;4876712;29;20215;-68
2023/06/30 14:00:17;;;;;;;46.92;42.55;;;26.60;99.90;;;;;;4875258;29;20220;-68
2023/06/30 14:02:44;;;;;;;54.15;49.38;;;26.80;99.90;;;;;;4869651;29;20216;-68
2023/06/30 14:05:09;;;;;;;30.02;25.75;;;27.90;99.90;;;;;;4874960;29;20222;-68
2023/06/30 14:07:35;;;;;;;34.30;27.92;;;28.80;99.90;;;;;;4876655;29;20196;-67
2023/06/30 14:10:01;;;;;;;71.63;66.30;;;29.30;99.90;;;;;;4875685;29;20248;-68
2023/06/30 14:12:27;;;;;;;55.33;50.78;;;29.80;99.90;;;;;;4858234;29;20613;-68
2023/06/30 14:14:53;;;;;;;75.63;70.07;;;29.60;99.90;;;;;;4876958;29;20202;-68
2023/06/30 14:17:19;;;;;;;93.75;87.40;;;29.20;99.90;;;;;;4876668;29;20290;-68
2023/06/30 14:19:45;;;;;;;106.53;99.53;;;28.60;99.90;;;;;;4873171;29;20223;-68
2023/06/30 14:22:10;;;;;;;81.22;75.00;;;28.50;99.90;;;;;;4871698;29;20241;-68
2023/06/30 14:24:36;;;;;;;49.53;45.20;;;28.20;99.90;;;;;;4877145;29;20192;-68
2023/06/30 14:27:02;;;;;;;34.47;28.50;;;27.70;99.90;;;;;;4859972;29;20216;-68
2023/06/30 14:29:28;;;;;;;28.92;23.05;;;27.30;99.90;;;;;;4860311;29;20561;-68
2023/06/30 14:31:53;;;;;;;35.15;31.45;;;27.60;99.90;;;;;;4875902;29;20209;-68
2023/06/30 14:34:19;;;;;;;86.43;80.07;;;28.60;99.90;;;;;;4876776;29;20193;-68
2023/06/30 14:36:45;;;;;;;31.90;26.63;;;29.70;99.90;;;;;;4876801;29;20204;-67
2023/06/30 14:39:11;;;;;;;32.13;27.58;;;30.60;99.90;;;;;;5324214;23;20198;-68
2023/06/30 14:41:37;;;;;;;33.88;30.17;;;30.70;99.90;;;;;;4863742;29;20723;-67
2023/06/30 14:44:03;;;;;;;31.98;27.67;;;30.10;99.90;;;;;;4868550;29;20663;-68
2023/06/30 14:46:29;;;;;;;30.00;24.98;;;29.50;99.90;;;;;;4876515;29;20230;-67
2023/06/30 14:48:55;;;;;;;30.55;25.77;;;29.20;99.90;;;;;;4871682;29;20211;-68
2023/06/30 14:51:21;;;;;;;47.28;42.88;;;28.80;99.90;;;;;;4863552;29;20665;-68
2023/06/30 14:53:47;;;;;;;179.23;168.05;;;28.00;99.90;;;;;;4896846;23;21501;-67
2023/06/30 14:56:12;;;;;;;30.30;26.25;;;27.20;99.90;;;;;;4878330;29;20204;-65
2023/06/30 14:58:38;;;;;;;32.53;23.15;;;26.40;99.90;;;;;;4872802;29;20243;-65
2023/06/30 15:01:04;;;;;;;108.93;101.50;;;25.70;99.90;;;;;;4879680;29;20204;-64
2023/06/30 15:03:30;;;;;;;95.45;88.45;;;25.10;99.90;;;;;;4879685;29;20249;-64
2023/06/30 15:05:56;;;;;;;64.30;58.95;;;24.40;99.90;;;;;;4880652;29;20219;-65
2023/06/30 15:08:22;;;;;;;196.73;183.70;;;23.60;99.90;;;;;;4885269;29;20196;-67
2023/06/30 15:10:47;;;;;;;337.23;313.13;;;22.00;99.90;;;;;;4883016;29;20196;-68
2023/06/30 15:13:13;;;;;;;176.55;162.88;;;20.80;99.90;;;;;;4879555;29;20206;-69
2023/06/30 15:15:39;;;;;;;223.75;208.18;;;20.20;99.90;;;;;;4879332;29;20217;-69
2023/06/30 15:18:05;;;;;;;201.30;187.07;;;19.90;99.90;;;;;;4856769;29;20189;-68
2023/06/30 15:20:31;;;;;;;80.13;72.93;;;19.80;99.90;;;;;;4877159;29;20551;-69
2023/06/30 15:22:57;;;;;;;82.97;75.63;;;19.70;99.90;;;;;;4879534;29;20192;-68
2023/06/30 15:25:25;;;;;;;217.02;201.20;;;19.80;99.90;;;;;;4862477;29;20264;-68